Time;durP1;ratioP1;P1;durP2;ratioP2;P2;SDS_P1;SDS_P2;PMS_P1;PMS_P2;Temp;Humidity;BMP_temperature;BMP_pressure;BME280_temperature;BME280_humidity;BME280_pressure;Samples;Min_cycle;Max_cycle;Signal;HPM_P1;HPM_P2
2022/07/06 00:02:18;;;;;;;2.10;1.90;;;;;;;21.32;100.00;99675.97;6257007;28;20537;-77
2022/07/06 00:05:18;;;;;;;2.87;2.00;;;;;;;21.25;100.00;99682.97;6239755;28;20045;-77
2022/07/06 00:08:19;;;;;;;2.10;1.90;;;;;;;21.29;100.00;99683.44;6240046;28;20048;-84
2022/07/06 00:11:21;;;;;;;7.03;2.30;;;;;;;21.25;100.00;99682.13;6239862;28;20043;-81
2022/07/06 00:14:21;;;;;;;3.20;2.08;;;;;;;21.22;100.00;99685.97;6256935;28;20045;-78
2022/07/06 00:17:22;;;;;;;2.20;2.00;;;;;;;21.26;100.00;99689.94;6256070;28;20037;-83
2022/07/06 00:20:23;;;;;;;4.03;2.47;;;;;;;21.28;100.00;99687.13;6240035;28;20037;-82
2022/07/06 00:23:24;;;;;;;5.63;2.50;;;;;;;21.28;100.00;99693.25;6256445;28;20399;-83
2022/07/06 00:26:25;;;;;;;6.50;2.50;;;;;;;21.26;100.00;99697.06;6256589;28;20055;-77
2022/07/06 00:29:25;;;;;;;2.60;2.20;;;;;;;21.23;100.00;99702.69;6239523;28;20044;-83
2022/07/06 00:32:29;;;;;;;3.13;2.57;;;;;;;21.20;100.00;99706.53;6273898;28;20557;-78
2022/07/06 00:35:30;;;;;;;3.08;2.38;;;;;;;21.18;100.00;99707.72;6240144;28;20078;-84
2022/07/06 00:38:31;;;;;;;2.70;2.43;;;;;;;21.22;100.00;99715.16;6239777;28;20049;-81
2022/07/06 00:41:32;;;;;;;3.73;2.43;;;;;;;21.25;100.00;99724.59;6238856;28;20111;-77
2022/07/06 00:44:33;;;;;;;3.97;2.58;;;;;;;21.27;100.00;99728.75;6255694;28;20048;-83
2022/07/06 00:47:34;;;;;;;3.00;2.70;;;;;;;21.27;100.00;99728.75;6239341;28;20340;-78
2022/07/06 00:50:35;;;;;;;2.93;2.60;;;;;;;21.09;100.00;99717.53;6255157;28;20049;-78
2022/07/06 00:53:36;;;;;;;5.93;2.70;;;;;;;21.16;100.00;99731.75;6255246;28;20040;-79
2022/07/06 00:56:39;;;;;;;4.72;2.70;;;;;;;21.10;100.00;99722.63;6272770;28;20075;-78
2022/07/06 00:59:42;;;;;;;3.42;2.60;;;;;;;21.11;100.00;99721.66;6272385;28;20104;-78
2022/07/06 01:02:45;;;;;;;3.88;2.70;;;;;;;21.12;100.00;99711.88;6238637;28;20083;-78
2022/07/06 01:05:47;;;;;;;3.63;2.97;;;;;;;21.07;100.00;99719.53;6255558;28;20041;-77
2022/07/06 01:08:49;;;;;;;5.78;3.00;;;;;;;20.98;100.00;99720.50;6254955;28;20048;-83
2022/07/06 01:11:52;;;;;;;5.28;2.90;;;;;;;21.02;100.00;99725.31;6239672;28;20044;-78
2022/07/06 01:14:53;;;;;;;3.38;2.80;;;;;;;20.99;100.00;99716.88;6254781;28;20407;-83
2022/07/06 01:17:54;;;;;;;4.97;3.20;;;;;;;20.95;100.00;99712.91;6273124;28;20446;-85
2022/07/06 01:21:12;;;;;;;3.63;2.77;;;;;;;20.98;100.00;99713.41;6255305;28;20041;-78
2022/07/06 01:24:13;;;;;;;2.72;2.45;;;;;;;20.97;100.00;99717.03;6272246;28;20134;-84
2022/07/06 01:27:14;;;;;;;5.57;2.67;;;;;;;20.97;100.00;99703.78;6254560;28;20041;-79
2022/07/06 01:30:17;;;;;;;3.40;2.67;;;;;;;21.01;100.00;99702.44;6272743;28;20132;-85
2022/07/06 01:33:18;;;;;;;3.47;2.53;;;;;;;21.03;100.00;99702.28;6272553;28;20045;-78
2022/07/06 01:36:20;;;;;;;3.17;2.87;;;;;;;20.92;100.00;99706.13;6238577;28;20110;-80
2022/07/06 01:39:20;;;;;;;5.07;3.22;;;;;;;20.77;100.00;99698.00;6272088;28;20510;-78
2022/07/06 01:42:21;;;;;;;3.60;2.60;;;;;;;20.84;100.00;99704.31;6272543;28;20037;-85
2022/07/06 01:45:22;;;;;;;3.33;2.90;;;;;;;20.84;100.00;99706.16;6238142;28;20098;-79
2022/07/06 01:48:24;;;;;;;3.58;3.00;;;;;;;20.81;100.00;99709.13;6255058;28;20037;-89
2022/07/06 01:51:25;;;;;;;3.33;2.70;;;;;;;20.82;100.00;99694.88;6272980;28;20052;-85
2022/07/06 01:54:26;;;;;;;3.83;3.20;;;;;;;20.71;100.00;99704.84;6254776;28;20045;-84
2022/07/06 01:57:27;;;;;;;3.77;3.10;;;;;;;20.70;100.00;99703.16;6238071;28;20450;-78
2022/07/06 02:00:30;;;;;;;6.13;3.30;;;;;;;20.61;100.00;99701.53;6254029;28;20437;-80
2022/07/06 02:03:30;;;;;;;4.30;2.78;;;;;;;20.68;100.00;99699.03;6238696;28;20407;-78
2022/07/06 02:06:31;;;;;;;8.33;3.10;;;;;;;20.67;100.00;99703.53;6254249;28;20048;-83
2022/07/06 02:09:32;;;;;;;8.60;3.43;;;;;;;20.50;100.00;99702.66;6255059;28;20033;-79
2022/07/06 02:12:33;;;;;;;3.30;3.00;;;;;;;20.43;100.00;99700.84;6237798;28;20045;-85
2022/07/06 02:15:34;;;;;;;9.67;3.77;;;;;;;20.37;100.00;99702.34;6221703;28;20044;-86
2022/07/06 02:18:35;;;;;;;3.83;3.20;;;;;;;20.46;100.00;99697.84;6257453;28;20048;-85
2022/07/06 02:21:38;;;;;;;3.80;3.10;;;;;;;20.44;100.00;99702.50;6259010;28;20041;-85
2022/07/06 02:24:39;;;;;;;3.50;3.08;;;;;;;20.54;100.00;99703.97;6258914;28;20041;-85
2022/07/06 02:27:40;;;;;;;4.43;3.50;;;;;;;20.56;100.00;99701.16;6242255;28;20076;-79
2022/07/06 02:30:41;;;;;;;3.90;3.50;;;;;;;20.46;100.00;99701.31;6242174;28;20037;-79
2022/07/06 02:33:44;;;;;;;9.67;3.63;;;;;;;20.43;100.00;99712.28;6258487;28;20040;-85
2022/07/06 02:36:45;;;;;;;5.72;3.58;;;;;;;20.44;100.00;99715.75;6258276;28;20041;-79
2022/07/06 02:39:46;;;;;;;5.43;3.47;;;;;;;20.44;100.00;99718.38;6258011;28;20045;-79
2022/07/06 02:42:46;;;;;;;5.67;3.67;;;;;;;20.32;100.00;99713.44;6258318;28;20413;-85
2022/07/06 02:45:47;;;;;;;4.87;3.80;;;;;;;20.28;100.00;99716.56;6259010;28;20045;-85
2022/07/06 02:48:48;;;;;;;5.57;3.80;;;;;;;20.33;100.00;99708.94;6258819;28;20048;-85
2022/07/06 02:51:55;;;;;;;6.80;3.80;;;;;;;20.27;100.00;99715.72;6258921;28;20037;-79
2022/07/06 02:54:58;;;;;;;7.68;3.60;;;;;;;20.24;100.00;99713.44;6241322;28;20148;-85
2022/07/06 02:57:59;;;;;;;4.28;3.85;;;;;;;20.29;100.00;99712.94;6258598;28;20099;-78
2022/07/06 03:01:00;;;;;;;4.47;3.77;;;;;;;20.30;100.00;99714.56;6257875;28;20074;-85
2022/07/06 03:04:01;;;;;;;7.40;4.10;;;;;;;20.15;100.00;99718.88;6241907;28;20045;-84
2022/07/06 03:07:02;;;;;;;5.13;3.90;;;;;;;20.13;100.00;99711.91;6257858;28;20051;-78
2022/07/06 03:10:03;;;;;;;6.03;3.57;;;;;;;20.08;100.00;99702.81;6241025;28;20550;-78
2022/07/06 03:13:04;;;;;;;8.30;3.50;;;;;;;20.16;100.00;99709.91;6258020;28;20448;-79
2022/07/06 03:16:05;;;;;;;5.57;4.00;;;;;;;20.21;100.00;99704.97;6257322;28;20049;-80
2022/07/06 03:19:06;;;;;;;5.53;3.83;;;;;;;20.17;100.00;99711.59;6240777;28;20441;-78
2022/07/06 03:22:06;;;;;;;4.03;3.47;;;;;;;20.12;100.00;99720.03;6257222;28;20045;-79
2022/07/06 03:25:08;;;;;;;4.50;4.03;;;;;;;20.18;100.00;99714.09;6256939;28;20539;-78
2022/07/06 03:28:08;;;;;;;5.00;3.80;;;;;;;20.17;100.00;99724.84;6240726;28;20045;-85
2022/07/06 03:31:09;;;;;;;7.18;3.70;;;;;;;20.18;100.00;99724.69;6241519;28;20821;-85
2022/07/06 03:34:10;;;;;;;3.97;3.55;;;;;;;20.30;100.00;99725.16;6275562;28;20223;-85
2022/07/06 03:37:11;;;;;;;8.07;4.00;;;;;;;20.39;100.00;99721.53;6257841;28;20062;-78
2022/07/06 03:40:13;;;;;;;8.83;3.70;;;;;;;20.39;100.00;99726.84;6240446;28;20090;-77
2022/07/06 03:43:17;;;;;;;;;;;;;;;20.30;100.00;99730.47;6257284;28;20033;-78
2022/07/06 03:46:18;;;;;;;6.70;3.72;;;;;;;20.25;100.00;99730.97;6257069;28;20401;-80
2022/07/06 03:49:19;;;;;;;4.53;3.67;;;;;;;20.31;100.00;99732.97;6256956;28;20475;-83
2022/07/06 03:52:20;;;;;;;6.93;4.37;;;;;;;20.28;100.00;99732.44;6242369;28;20051;-85
2022/07/06 03:55:20;;;;;;;5.63;4.00;;;;;;;20.26;100.00;99732.63;6258787;28;20048;-86
2022/07/06 03:58:22;;;;;;;6.70;4.07;;;;;;;20.33;100.00;99741.56;6274010;28;20500;-80
2022/07/06 04:01:23;;;;;;;12.20;3.67;;;;;;;20.39;100.00;99749.88;6238826;28;20048;-86
2022/07/06 04:04:24;;;;;;;7.53;4.13;;;;;;;20.26;100.00;99748.53;6256071;28;20045;-86
2022/07/06 04:07:25;;;;;;;6.30;3.93;;;;;;;20.17;100.00;99756.63;6239203;28;20048;-78
2022/07/06 04:10:27;;;;;;;6.05;3.95;;;;;;;20.24;100.00;99752.31;6272599;28;20052;-78
2022/07/06 04:13:27;;;;;;;6.37;4.33;;;;;;;20.28;100.00;99738.59;6238562;28;20387;-80
2022/07/06 04:16:28;;;;;;;6.23;4.40;;;;;;;20.27;100.00;99734.28;6272390;28;20045;-78
2022/07/06 04:19:29;;;;;;;4.90;4.10;;;;;;;20.26;100.00;99745.88;6254912;28;20041;-79
2022/07/06 04:22:35;;;;;;;4.67;4.10;;;;;;;20.12;100.00;99747.34;6254622;28;20051;-77
2022/07/06 04:25:35;;;;;;;4.93;4.43;;;;;;;19.99;100.00;99757.56;6255906;28;20053;-86
2022/07/06 04:28:39;;;;;;;7.07;5.07;;;;;;;20.12;100.00;99751.81;6254862;28;20052;-78
2022/07/06 04:31:39;;;;;;;8.25;4.10;;;;;;;20.06;100.00;99749.81;6239317;28;20332;-87
2022/07/06 04:34:41;;;;;;;5.35;4.25;;;;;;;20.19;100.00;99755.47;6254727;28;20047;-85
2022/07/06 04:37:42;;;;;;;5.50;4.30;;;;;;;20.17;100.00;99765.38;6255538;28;20045;-86
2022/07/06 04:40:46;;;;;;;7.55;4.20;;;;;;;20.11;100.00;99763.38;6238087;28;20041;-78
2022/07/06 04:43:46;;;;;;;4.78;4.20;;;;;;;20.13;100.00;99775.47;6238653;28;20045;-78
2022/07/06 04:46:48;;;;;;;5.90;3.97;;;;;;;20.25;100.00;99776.00;6238558;28;20768;-85
2022/07/06 04:49:48;;;;;;;6.50;4.22;;;;;;;20.26;100.00;99776.81;6272899;28;20073;-86
2022/07/06 04:52:49;;;;;;;5.80;3.83;;;;;;;20.30;100.00;99781.66;6222163;28;20052;-86
2022/07/06 04:55:50;;;;;;;6.70;4.30;;;;;;;20.31;100.00;99783.28;6272383;28;20066;-78
2022/07/06 04:58:51;;;;;;;5.82;4.07;;;;;;;20.26;100.00;99782.97;6212032;28;1245498;-86
2022/07/06 05:01:52;;;;;;;7.88;4.53;;;;;;;20.42;100.00;99779.50;6238800;28;20491;-78
2022/07/06 05:04:56;;;;;;;7.37;4.00;;;;;;;20.57;100.00;99789.44;6254863;28;20057;-84
2022/07/06 05:07:57;;;;;;;11.05;4.25;;;;;;;20.59;100.00;99791.00;6256008;28;20387;-78
2022/07/06 05:10:58;;;;;;;3.67;3.27;;;;;;;20.59;100.00;99788.34;6238354;28;20044;-78
2022/07/06 05:13:58;;;;;;;6.00;4.27;;;;;;;20.78;100.00;99792.47;6238650;28;20045;-86
2022/07/06 05:16:59;;;;;;;4.97;4.00;;;;;;;20.68;100.00;99794.47;6222841;28;20037;-85
2022/07/06 05:20:00;;;;;;;6.67;3.93;;;;;;;20.64;100.00;99793.13;6272492;28;20045;-79
2022/07/06 05:23:01;;;;;;;4.73;3.97;;;;;;;20.55;100.00;99810.84;6272987;28;20037;-79
2022/07/06 05:26:01;;;;;;;8.37;4.53;;;;;;;20.60;100.00;99807.72;6209188;28;20052;-79
2022/07/06 05:29:02;;;;;;;11.30;4.63;;;;;;;20.63;100.00;99800.28;6213876;28;20450;-86
2022/07/06 05:32:04;;;;;;;7.93;4.60;;;;;;;20.58;100.00;99812.31;6214401;28;20041;-85
2022/07/06 05:35:07;;;;;;;;;;;;;;;20.29;100.00;99805.66;6231083;28;20097;-87
2022/07/06 05:38:08;;;;;;;10.13;4.38;;;;;;;20.28;100.00;99807.47;6247771;28;20023;-87
2022/07/06 05:41:09;;;;;;;8.37;4.60;;;;;;;20.10;100.00;99804.13;6230705;28;20039;-87
2022/07/06 05:44:09;;;;;;;5.43;4.07;;;;;;;20.20;100.00;99811.91;6214314;28;20072;-86
2022/07/06 05:50:30;;;;;;;5.85;4.35;;;;;;;20.12;100.00;99820.69;6219574;28;20052;-84
2022/07/06 05:53:31;;;;;;;5.73;5.03;;;;;;;20.10;100.00;99822.66;6217056;28;20041;-83
2022/07/06 05:56:31;;;;;;;7.60;5.30;;;;;;;19.87;100.00;99819.75;6218778;28;20419;-82
2022/07/06 05:59:33;;;;;;;5.73;5.13;;;;;;;19.95;100.00;99822.41;6235140;28;20049;-83
2022/07/06 06:02:41;;;;;;;8.68;5.50;;;;;;;19.98;100.00;99819.47;6235490;28;20047;-83
2022/07/06 06:05:42;;;;;;;6.15;5.30;;;;;;;19.95;100.00;99826.88;6235341;28;20111;-84
2022/07/06 06:08:43;;;;;;;9.33;5.63;;;;;;;19.88;100.00;99832.81;6234756;28;20376;-80
2022/07/06 06:11:44;;;;;;;9.93;5.20;;;;;;;19.96;100.00;99834.69;6234701;28;20094;-79
2022/07/06 06:14:44;;;;;;;9.83;5.60;;;;;;;19.87;100.00;99835.63;6218375;28;20049;-84
2022/07/06 06:17:46;;;;;;;9.07;5.30;;;;;;;20.08;100.00;99828.09;6218988;28;20045;-85
2022/07/06 06:20:46;;;;;;;8.13;5.32;;;;;;;20.20;100.00;99838.38;6235219;28;20041;-86
2022/07/06 06:23:49;;;;;;;8.50;5.70;;;;;;;20.12;100.00;99842.69;6201914;28;20495;-80
2022/07/06 06:26:50;;;;;;;7.50;6.00;;;;;;;20.18;100.00;99832.44;6251929;28;20053;-80
2022/07/06 06:29:51;;;;;;;8.57;6.03;;;;;;;20.18;100.00;99840.38;6202212;28;20038;-80
2022/07/06 06:33:05;;;;;;;7.28;5.88;;;;;;;19.93;100.00;99837.63;6218689;28;20037;-86
2022/07/06 06:36:08;;;;;;;7.70;6.10;;;;;;;19.83;100.00;99843.06;6234320;28;20041;-85
2022/07/06 06:39:11;;;;;;;8.05;6.47;;;;;;;19.77;100.00;99845.50;6234321;28;20069;-82
2022/07/06 06:42:12;;;;;;;8.10;5.47;;;;;;;19.83;100.00;99840.44;6234672;28;20047;-87
2022/07/06 06:45:13;;;;;;;6.60;5.43;;;;;;;19.81;100.00;99846.84;6218134;28;20049;-79
2022/07/06 06:48:14;;;;;;;6.80;5.27;;;;;;;19.90;100.00;99852.03;6233687;28;20091;-78
2022/07/06 06:51:15;;;;;;;5.10;3.83;;;;;;;19.91;100.00;99853.69;6201224;28;20041;-78
2022/07/06 06:54:18;;;;;;;5.07;4.00;;;;;;;20.04;100.00;99852.44;6217657;28;20050;-79
2022/07/06 06:57:19;;;;;;;7.15;4.10;;;;;;;20.02;100.00;99855.22;6217331;28;20083;-79
2022/07/06 07:00:20;;;;;;;6.87;4.10;;;;;;;20.08;100.00;99859.88;6200964;28;20042;-79
2022/07/06 07:03:21;;;;;;;5.77;3.93;;;;;;;20.17;100.00;99858.09;6233855;28;20082;-90
2022/07/06 07:06:22;;;;;;;6.30;4.60;;;;;;;20.25;100.00;99858.13;6218077;28;20045;-88
2022/07/06 07:09:23;;;;;;;5.20;4.33;;;;;;;20.25;100.00;99857.28;6217992;28;20116;-86
2022/07/06 07:12:26;;;;;;;4.63;4.10;;;;;;;20.45;100.00;99856.03;6201801;28;20041;-89
2022/07/06 07:15:27;;;;;;;13.43;4.30;;;;;;;20.63;100.00;99853.28;6234086;28;20045;-88
2022/07/06 07:18:28;;;;;;;6.57;3.92;;;;;;;20.53;100.00;99857.88;6251615;28;20038;-88
2022/07/06 07:21:29;;;;;;;6.03;3.80;;;;;;;20.33;100.00;99855.50;6217740;28;20041;-88
2022/07/06 07:24:30;;;;;;;6.45;4.00;;;;;;;20.29;100.00;99856.81;6216966;28;20128;-79
2022/07/06 07:27:31;;;;;;;4.37;3.40;;;;;;;20.28;100.00;99862.25;6216882;28;20052;-79
2022/07/06 07:30:34;;;;;;;4.97;3.00;;;;;;;20.40;100.00;99876.03;6233191;28;20041;-87
2022/07/06 07:33:35;;;;;;;2.63;2.40;;;;;;;20.17;100.00;99860.75;6233519;28;20057;-87
2022/07/06 07:36:36;;;;;;;3.23;2.30;;;;;;;20.32;100.00;99867.09;6233570;28;20150;-87
2022/07/06 07:39:39;;;;;;;4.57;2.15;;;;;;;20.60;100.00;99861.53;6233227;28;20168;-79
2022/07/06 07:42:43;;;;;;;3.90;1.90;;;;;;;20.64;100.00;99864.72;6232934;28;20041;-79
2022/07/06 07:45:44;;;;;;;4.60;2.13;;;;;;;20.68;100.00;99855.44;6217936;28;20056;-88
2022/07/06 07:48:44;;;;;;;3.20;2.30;;;;;;;20.45;100.00;99860.50;6201150;28;20045;-78
2022/07/06 07:51:47;;;;;;;4.17;1.90;;;;;;;20.57;100.00;99868.94;6232494;28;20046;-80
2022/07/06 07:54:49;;;;;;;2.92;1.60;;;;;;;20.70;100.00;99875.47;6216433;28;20400;-79
2022/07/06 07:57:49;;;;;;;4.53;1.47;;;;;;;20.33;100.00;99874.03;6232607;28;20064;-78
2022/07/06 08:00:50;;;;;;;1.63;1.53;;;;;;;20.32;100.00;99880.34;6200846;28;20529;-86
2022/07/06 08:03:51;;;;;;;1.53;0.80;;;;;;;20.26;100.00;99882.78;6200619;28;20079;-87
2022/07/06 08:06:52;;;;;;;0.60;0.60;;;;;;;20.29;100.00;99878.00;6216175;28;20057;-79
2022/07/06 08:09:53;;;;;;;1.33;0.80;;;;;;;20.31;100.00;99881.31;6200382;28;20045;-86
2022/07/06 08:12:54;;;;;;;0.60;0.60;;;;;;;20.54;100.00;99888.66;6232800;28;20126;-88
2022/07/06 08:15:54;;;;;;;0.60;0.60;;;;;;;20.38;100.00;99893.91;6199075;28;20188;-79
2022/07/06 08:18:56;;;;;;;1.67;0.57;;;;;;;20.45;100.00;99902.91;6232539;28;20045;-86
2022/07/06 08:21:57;;;;;;;3.10;0.53;;;;;;;20.75;100.00;99903.31;6199618;28;20064;-78
2022/07/06 08:25:00;;;;;;;0.50;0.43;;;;;;;20.56;100.00;99907.88;6232176;28;20507;-85
2022/07/06 08:28:04;;;;;;;0.88;0.50;;;;;;;20.60;100.00;99906.59;6232468;28;20072;-80
2022/07/06 08:31:05;;;;;;;0.40;0.40;;;;;;;20.24;100.00;99916.56;6249706;28;20384;-84
2022/07/06 08:34:08;;;;;;;0.40;0.40;;;;;;;20.27;100.00;99917.06;6215091;28;20148;-79
2022/07/06 08:37:11;;;;;;;1.33;0.60;;;;;;;20.44;100.00;99925.06;6215913;28;20038;-78
2022/07/06 08:40:12;;;;;;;0.55;0.55;;;;;;;20.62;100.00;99932.97;6199483;28;20053;-83
2022/07/06 08:43:14;;;;;;;2.10;0.60;;;;;;;20.27;100.00;99922.38;6214936;28;20053;-78
2022/07/06 08:46:15;;;;;;;1.13;0.80;;;;;;;20.40;100.00;99940.47;6215560;28;20483;-84
2022/07/06 08:49:17;;;;;;;0.70;0.70;;;;;;;20.64;100.00;99937.09;6249399;28;20124;-83
2022/07/06 08:52:20;;;;;;;0.90;0.70;;;;;;;20.49;100.00;99938.69;6231600;28;20458;-83
2022/07/06 08:55:21;;;;;;;4.65;1.10;;;;;;;20.97;100.00;99944.31;6214910;28;20045;-84
2022/07/06 08:58:27;;;;;;;0.70;0.70;;;;;;;21.34;100.00;99938.53;6248905;28;20084;-83
2022/07/06 09:01:28;;;;;;;1.25;0.80;;;;;;;21.34;100.00;99939.34;6248451;28;20480;-83
2022/07/06 09:04:32;;;;;;;0.82;0.82;;;;;;;21.69;100.00;99932.03;6248585;28;20088;-82
2022/07/06 09:07:34;;;;;;;0.75;0.75;;;;;;;21.80;100.00;99938.81;6248777;28;20042;-78
2022/07/06 09:10:34;;;;;;;;;;;;;;;21.44;100.00;99941.88;6249242;28;20072;-82
2022/07/06 09:13:35;;;;;;;3.33;0.80;;;;;;;21.69;99.64;99937.34;6231045;28;19921;-78
2022/07/06 09:16:36;;;;;;;0.70;0.70;;;;;;;21.94;97.14;99939.97;6214426;28;20053;-79
2022/07/06 09:19:37;;;;;;;1.50;0.70;;;;;;;21.72;98.44;99942.34;6198092;28;20041;-79
2022/07/06 09:22:38;;;;;;;3.90;0.70;;;;;;;21.73;98.16;99949.28;6230948;28;20046;-80
2022/07/06 09:25:39;;;;;;;1.42;0.88;;;;;;;21.68;97.20;99945.47;6248552;28;20132;-84
2022/07/06 09:28:44;;;;;;;1.60;0.70;;;;;;;21.90;98.75;99944.78;6214739;28;20065;-82
2022/07/06 09:31:56;;;;;;;0.77;0.60;;;;;;;21.62;92.74;99943.50;6248907;28;20783;-82
2022/07/06 09:35:01;;;;;;;2.33;0.70;;;;;;;22.14;88.47;99945.72;6230032;28;20041;-78
2022/07/06 09:38:13;;;;;;;0.75;0.75;;;;;;;22.51;89.25;99953.06;6198532;28;20483;-79
2022/07/06 09:41:31;;;;;;;0.70;0.70;;;;;;;22.93;88.71;99951.00;6213727;28;20060;-80
2022/07/06 09:44:41;;;;;;;1.48;0.80;;;;;;;22.96;84.35;99948.00;6230726;28;20491;-83
2022/07/06 09:47:47;;;;;;;0.70;0.70;;;;;;;22.52;88.24;99957.38;6230798;28;20484;-81
2022/07/06 09:50:56;;;;;;;0.70;0.70;;;;;;;22.55;87.62;99966.84;6230204;28;20105;-78
2022/07/06 09:53:59;;;;;;;0.60;0.60;;;;;;;22.23;85.48;99968.63;6253904;28;20037;-79
2022/07/06 09:57:02;;;;;;;0.50;0.50;;;;;;;22.57;84.62;99958.69;6272473;28;20501;-79
2022/07/06 10:00:09;;;;;;;0.70;0.70;;;;;;;22.68;83.17;99963.63;6272665;28;20407;-88
2022/07/06 10:03:10;;;;;;;0.60;0.60;;;;;;;23.37;77.14;99976.16;6255542;28;20048;-87
2022/07/06 10:06:12;;;;;;;0.63;0.57;;;;;;;23.75;71.82;99977.00;6254951;28;20045;-85
2022/07/06 10:09:14;;;;;;;1.05;0.60;;;;;;;25.29;68.99;99975.28;6254576;28;20094;-86
2022/07/06 10:12:17;;;;;;;0.70;0.60;;;;;;;25.58;65.05;99980.69;6254416;28;20107;-80
2022/07/06 10:15:19;;;;;;;0.75;0.70;;;;;;;26.02;63.89;99979.56;6272280;28;20479;-79
2022/07/06 10:18:20;;;;;;;0.98;0.60;;;;;;;25.48;61.65;99967.66;6254133;28;20037;-80
2022/07/06 10:21:22;;;;;;;1.30;0.60;;;;;;;24.94;62.69;99967.13;6271852;28;20041;-83
2022/07/06 10:24:24;;;;;;;0.88;0.60;;;;;;;24.79;66.17;99962.84;6271676;28;20055;-86
2022/07/06 10:27:25;;;;;;;1.20;0.68;;;;;;;24.88;65.12;99970.53;6254491;28;20041;-79
2022/07/06 10:30:28;;;;;;;0.82;0.60;;;;;;;25.06;64.00;99955.94;6254618;28;20056;-78
2022/07/06 10:33:30;;;;;;;0.60;0.60;;;;;;;25.22;63.78;99963.72;6254551;28;20367;-79
2022/07/06 10:36:36;;;;;;;2.33;0.70;;;;;;;25.37;60.64;99958.31;6253980;28;20041;-84
2022/07/06 10:43:03;;;;;;;2.28;0.73;;;;;;;24.17;63.68;99954.25;6276571;28;20091;-85
2022/07/06 10:46:13;;;;;;;9.00;0.70;;;;;;;24.34;65.24;99947.72;6242124;28;20045;-84
2022/07/06 10:49:17;;;;;;;0.70;0.60;;;;;;;24.28;64.69;99942.31;6258523;28;20119;-85
2022/07/06 10:52:19;;;;;;;1.15;0.85;;;;;;;24.58;63.29;99948.44;6276230;28;20095;-84
2022/07/06 10:55:34;;;;;;;;;;;;;;;24.03;64.85;99949.75;6259025;28;20075;-84
2022/07/06 10:58:53;;;;;;;1.58;0.80;;;;;;;24.03;65.68;99955.09;6241562;28;20329;-85
2022/07/06 11:02:17;;;;;;;2.70;0.75;;;;;;;24.02;64.10;99953.44;6258483;28;20045;-86
2022/07/06 11:05:41;;;;;;;2.00;0.88;;;;;;;24.09;62.48;99959.69;6258285;28;20483;-82
2022/07/06 11:08:42;;;;;;;1.95;0.88;;;;;;;24.18;60.37;99960.44;6275392;28;20040;-86
2022/07/06 11:11:46;;;;;;;1.85;0.80;;;;;;;24.77;58.97;99947.03;6275759;28;20044;-77
2022/07/06 11:14:48;;;;;;;2.92;0.80;;;;;;;26.02;53.72;99959.00;6242013;28;20044;-78
2022/07/06 11:18:12;;;;;;;3.13;0.73;;;;;;;26.25;50.92;99957.91;6258525;28;20041;-80
2022/07/06 11:21:21;;;;;;;3.78;0.90;;;;;;;26.94;48.50;99956.94;6275424;28;20051;-80
2022/07/06 11:24:24;;;;;;;0.63;0.60;;;;;;;26.76;49.05;99954.84;6257223;28;20106;-79
2022/07/06 11:27:26;;;;;;;1.95;0.60;;;;;;;26.93;50.27;99953.44;6233127;28;20061;-79
2022/07/06 11:30:28;;;;;;;6.25;0.80;;;;;;;27.07;48.93;99954.28;6200654;28;20151;-80
2022/07/06 11:33:29;;;;;;;1.35;0.70;;;;;;;26.01;51.13;99956.56;6233129;28;20061;-78
2022/07/06 11:36:30;;;;;;;2.65;0.73;;;;;;;25.84;50.96;99978.22;6233122;28;20041;-78
2022/07/06 11:39:33;;;;;;;0.68;0.68;;;;;;;26.99;49.65;99970.53;6200353;28;20053;-85
2022/07/06 11:42:35;;;;;;;1.42;0.65;;;;;;;26.77;49.25;99959.19;6216501;28;20051;-86
2022/07/06 11:45:36;;;;;;;0.65;0.65;;;;;;;26.66;46.82;99959.75;6200457;28;20064;-87
2022/07/06 11:48:37;;;;;;;0.67;0.67;;;;;;;27.38;46.21;99952.06;6232604;28;20054;-83
2022/07/06 11:51:40;;;;;;;6.82;0.57;;;;;;;27.86;45.23;99952.69;6215097;28;20274;-84
2022/07/06 11:54:41;;;;;;;3.40;1.00;;;;;;;27.87;44.73;99943.59;6250128;28;20403;-79
2022/07/06 11:57:43;;;;;;;2.20;0.60;;;;;;;27.18;44.58;99955.53;6250003;28;20053;-79
2022/07/06 12:00:44;;;;;;;0.95;0.50;;;;;;;26.88;46.12;99942.50;6250451;28;20499;-85
2022/07/06 12:03:45;;;;;;;1.48;0.60;;;;;;;26.77;46.92;99931.56;6250087;28;20037;-87
2022/07/06 12:06:46;;;;;;;0.88;0.60;;;;;;;27.27;46.14;99942.81;6231751;28;20069;-84
2022/07/06 12:09:48;;;;;;;1.33;0.73;;;;;;;27.42;43.90;99946.09;6249559;28;20077;-78
2022/07/06 12:12:48;;;;;;;0.70;0.57;;;;;;;27.05;44.43;99945.63;6249752;28;20041;-79
2022/07/06 12:15:50;;;;;;;0.83;0.60;;;;;;;27.82;42.68;99943.38;6215781;28;20049;-78
2022/07/06 12:18:50;;;;;;;;;;;;;;;28.25;41.97;99947.41;6232430;28;20053;-79
2022/07/06 12:21:52;;;;;;;1.77;0.80;;;;;;;28.43;42.01;99936.00;6215521;28;20391;-79
2022/07/06 12:24:53;;;;;;;1.98;1.00;;;;;;;26.96;44.37;99935.34;6215411;28;20061;-84
2022/07/06 12:27:56;;;;;;;3.78;0.63;;;;;;;27.28;41.04;99939.06;6215271;28;20136;-78
2022/07/06 12:30:57;;;;;;;3.30;1.15;;;;;;;27.56;40.96;99924.66;6216077;28;20487;-81
2022/07/06 12:33:58;;;;;;;1.50;0.70;;;;;;;27.68;40.44;99950.63;6215440;28;20046;-84
2022/07/06 12:37:05;;;;;;;4.05;1.08;;;;;;;27.31;41.36;99931.47;6231246;28;20049;-79
2022/07/06 12:40:13;;;;;;;2.95;1.00;;;;;;;27.57;39.00;99937.00;6249235;28;20081;-83
2022/07/06 12:43:34;;;;;;;2.15;0.98;;;;;;;27.26;38.03;99931.28;6215171;28;20132;-88
2022/07/06 12:46:41;;;;;;;3.47;1.00;;;;;;;27.77;38.87;99940.50;6234466;28;20094;-86
2022/07/06 12:49:42;;;;;;;1.48;0.88;;;;;;;28.14;39.66;99916.72;6231324;28;20041;-78
2022/07/06 12:52:43;;;;;;;1.17;0.95;;;;;;;28.31;37.25;99922.41;6249180;28;20072;-79
2022/07/06 12:55:44;;;;;;;2.67;0.88;;;;;;;27.89;39.43;99936.16;6231183;28;20037;-78
2022/07/06 12:58:58;;;;;;;3.83;0.95;;;;;;;28.53;38.73;99939.88;6214965;28;20128;-84
2022/07/06 13:01:59;;;;;;;3.33;0.90;;;;;;;27.46;40.47;99944.63;6247968;28;20426;-77
2022/07/06 13:05:09;;;;;;;1.95;0.90;;;;;;;28.05;39.64;99945.63;6214295;28;20041;-79
2022/07/06 13:08:10;;;;;;;1.73;0.80;;;;;;;27.79;38.55;99948.34;6231309;28;20124;-87
2022/07/06 13:11:11;;;;;;;1.23;0.93;;;;;;;27.61;39.84;99947.09;6248599;28;20381;-80
2022/07/06 13:14:11;;;;;;;0.80;0.80;;;;;;;27.17;40.89;99943.16;6198198;28;20361;-77
2022/07/06 13:17:12;;;;;;;1.90;0.82;;;;;;;27.23;40.53;99952.28;6230920;28;20056;-78
2022/07/06 13:20:13;;;;;;;1.63;0.98;;;;;;;27.52;39.54;99949.16;6248223;28;20046;-85
2022/07/06 13:23:14;;;;;;;7.22;1.13;;;;;;;27.20;38.97;99933.91;6230736;28;20093;-86
2022/07/06 13:26:16;;;;;;;3.28;0.90;;;;;;;27.12;40.36;99943.78;6214253;28;20053;-87
2022/07/06 13:29:18;;;;;;;5.75;0.90;;;;;;;27.84;40.28;99935.97;6198606;28;20049;-87
2022/07/06 13:32:21;;;;;;;4.43;1.10;;;;;;;28.03;38.45;99925.41;6214630;28;20046;-84
2022/07/06 13:35:22;;;;;;;;;;;;;;;28.19;39.67;99933.00;6230969;28;20049;-85
2022/07/06 13:38:22;;;;;;;3.40;0.90;;;;;;;27.78;39.61;99933.25;6230457;28;20330;-82
2022/07/06 13:41:24;;;;;;;4.78;1.27;;;;;;;27.68;38.68;99926.50;6214463;28;20037;-78
2022/07/06 13:44:25;;;;;;;1.40;0.90;;;;;;;27.52;39.30;99922.38;6230350;28;20044;-87
2022/07/06 13:47:26;;;;;;;0.85;0.85;;;;;;;27.22;40.71;99921.13;6230097;28;20652;-77
2022/07/06 13:50:31;;;;;;;5.47;1.20;;;;;;;27.16;40.85;99919.25;6230349;28;20052;-77
2022/07/06 13:53:32;;;;;;;1.10;0.85;;;;;;;27.36;39.96;99927.34;6214508;28;20091;-77
2022/07/06 13:56:33;;;;;;;6.72;1.27;;;;;;;27.08;38.78;99909.59;6230337;28;20061;-87
2022/07/06 13:59:34;;;;;;;3.28;1.02;;;;;;;27.20;39.50;99912.47;6237924;28;20084;-87
2022/07/06 14:02:35;;;;;;;6.90;1.00;;;;;;;27.44;38.11;99916.41;6238036;28;20094;-86
2022/07/06 14:05:36;;;;;;;1.92;0.82;;;;;;;27.23;38.15;99926.31;6272222;28;20041;-78
2022/07/06 14:08:38;;;;;;;3.35;1.00;;;;;;;26.91;37.67;99918.03;6272546;28;20045;-77
2022/07/06 14:11:39;;;;;;;7.30;1.10;;;;;;;27.22;37.60;99923.81;6272791;28;20499;-79
2022/07/06 14:14:39;;;;;;;2.33;0.98;;;;;;;27.40;37.75;99924.03;6241428;28;20045;-79
2022/07/06 14:17:42;;;;;;;5.20;1.30;;;;;;;27.31;38.01;99927.97;6259668;28;20045;-78
2022/07/06 14:20:45;;;;;;;6.10;1.00;;;;;;;27.57;37.36;99921.75;6243407;28;20045;-85